Terminal Aerodrome Forecast
Issued by NWS

Home | Current Version | Previous Version | Graphics & Text | Print | Product List | Glossary On
Versions: 1 2 3 4 5 6 7 8 9 10 11 12 13 14 15 16 17 18 19
000
FTUS42 KMHX 240500
TAFPGV
TAF
KPGV 240521Z 2406/2506 17009G15KT P6SM VCSH BKN009 OVC015
     FM240800 20010G15KT P6SM BKN007
     FM241300 22013G20KT P6SM SCT007 BKN025
     FM242200 21008KT 5SM BR OVC010
      AMD LTD TO CLD VIS AND WIND=

USA.gov is the U.S. government's official web portal to all federal, state and local government web resources and services.